Time;durP1;ratioP1;P1;durP2;ratioP2;P2;SDS_P1;SDS_P2;PMS_P1;PMS_P2;Temp;Humidity;BMP_temperature;BMP_pressure;BME280_temperature;BME280_humidity;BME280_pressure;Samples;Min_cycle;Max_cycle;Signal;HPM_P1;HPM_P2
2022/10/06 00:04:02;;;;;;;3.83;2.15;;;;;;;;;;10283398;28;20851;-74
2022/10/06 00:09:02;;;;;;;2.47;1.67;;;;;;;;;;10282940;28;20029;-75
2022/10/06 00:14:03;;;;;;;7.18;2.45;;;;;;;;;;10284621;28;20021;-73
2022/10/06 00:19:03;;;;;;;3.35;2.58;;;;;;;;;;10283498;28;20015;-79
2022/10/06 00:24:03;;;;;;;4.38;2.63;;;;;;;;;;10284668;28;20487;-76
2022/10/06 00:29:03;;;;;;;5.68;3.08;;;;;;;;;;10283266;28;20027;-74
2022/10/06 00:34:04;;;;;;;8.88;3.33;;;;;;;;;;10282143;28;20045;-79
2022/10/06 00:39:04;;;;;;;11.77;4.47;;;;;;;;;;10281738;28;20034;-78
2022/10/06 00:44:04;;;;;;;4.18;3.78;;;;;;;;;;10282145;28;20023;-78
2022/10/06 00:49:27;;;;;;;16.50;5.88;;;;;;;;;;10281326;28;20027;-78
2022/10/06 00:54:27;;;;;;;9.73;4.78;;;;;;;;;;10283362;28;20504;-76
2022/10/06 00:59:28;;;;;;;6.07;4.07;;;;;;;;;;10282806;28;20022;-77
2022/10/06 01:04:32;;;;;;;6.82;4.70;;;;;;;;;;10281949;28;20019;-73
2022/10/06 01:09:33;;;;;;;9.23;4.85;;;;;;;;;;10280440;28;20109;-77
2022/10/06 01:14:35;;;;;;;13.25;4.70;;;;;;;;;;10282893;28;20150;-81
2022/10/06 01:19:54;;;;;;;7.30;4.30;;;;;;;;;;10280662;28;20022;-76
2022/10/06 01:24:54;;;;;;;4.25;3.00;;;;;;;;;;10281060;28;20109;-82
2022/10/06 01:29:55;;;;;;;5.05;3.45;;;;;;;;;;10280271;28;20523;-75
2022/10/06 01:34:56;;;;;;;3.88;2.40;;;;;;;;;;10280462;28;20046;-76
2022/10/06 01:39:56;;;;;;;3.33;2.20;;;;;;;;;;10277842;28;20543;-75
2022/10/06 01:44:56;;;;;;;5.22;2.55;;;;;;;;;;10278545;28;20015;-75
2022/10/06 01:49:56;;;;;;;3.35;2.20;;;;;;;;;;10279587;28;20022;-76
2022/10/06 01:54:57;;;;;;;4.82;2.47;;;;;;;;;;10281353;28;20015;-77
2022/10/06 01:59:57;;;;;;;4.43;2.75;;;;;;;;;;10279763;28;20111;-77
2022/10/06 02:04:58;;;;;;;4.30;2.70;;;;;;;;;;10280145;28;20022;-75
2022/10/06 02:09:58;;;;;;;3.83;2.10;;;;;;;;;;10280248;28;20097;-74
2022/10/06 02:14:58;;;;;;;4.20;2.15;;;;;;;;;;10279745;28;20057;-74
2022/10/06 02:19:58;;;;;;;4.20;2.28;;;;;;;;;;10280672;28;20086;-74
2022/10/06 02:24:59;;;;;;;2.20;1.73;;;;;;;;;;10285704;28;20571;-79
2022/10/06 02:29:59;;;;;;;4.07;2.58;;;;;;;;;;10285885;28;20611;-77
2022/10/06 02:34:59;;;;;;;4.35;2.47;;;;;;;;;;10289113;28;20126;-76
2022/10/06 02:40:00;;;;;;;4.15;2.60;;;;;;;;;;10287725;28;20102;-76
2022/10/06 02:45:00;;;;;;;3.17;2.57;;;;;;;;;;10289390;28;20026;-74
2022/10/06 02:50:01;;;;;;;22.88;3.33;;;;;;;;;;10287980;28;20412;-78
2022/10/06 02:55:03;;;;;;;3.72;2.53;;;;;;;;;;10285364;28;20457;-78
2022/10/06 03:00:06;;;;;;;3.33;2.75;;;;;;;;;;10281439;28;20106;-74
2022/10/06 03:05:06;;;;;;;3.38;2.92;;;;;;;;;;10285160;28;20407;-79
2022/10/06 03:10:06;;;;;;;3.10;2.60;;;;;;;;;;10284785;28;20029;-76
2022/10/06 03:15:07;;;;;;;5.20;2.40;;;;;;;;;;10285446;28;20414;-74
2022/10/06 03:20:07;;;;;;;5.45;2.83;;;;;;;;;;10285796;28;20030;-73
2022/10/06 03:25:08;;;;;;;4.22;2.78;;;;;;;;;;10285400;28;20121;-78
2022/10/06 03:30:09;;;;;;;4.88;2.35;;;;;;;;;;10284776;28;20034;-76
2022/10/06 03:35:09;;;;;;;3.55;2.85;;;;;;;;;;10283807;28;20089;-76
2022/10/06 03:40:09;;;;;;;7.03;3.40;;;;;;;;;;10283957;28;20030;-78
2022/10/06 03:45:09;;;;;;;6.47;3.58;;;;;;;;;;10283817;28;20022;-75
2022/10/06 03:50:09;;;;;;;5.32;3.50;;;;;;;;;;10283776;28;20152;-75
2022/10/06 03:55:10;;;;;;;7.45;3.30;;;;;;;;;;10284709;28;20018;-72
2022/10/06 04:00:10;;;;;;;5.63;3.15;;;;;;;;;;10282574;28;20034;-77
2022/10/06 04:05:11;;;;;;;7.75;3.03;;;;;;;;;;10281697;28;20759;-77
2022/10/06 04:10:11;;;;;;;5.47;3.30;;;;;;;;;;10280194;28;20033;-79
2022/10/06 04:15:11;;;;;;;6.55;3.80;;;;;;;;;;10283867;28;20023;-74
2022/10/06 04:20:12;;;;;;;5.00;3.22;;;;;;;;;;10278304;28;20030;-79
2022/10/06 04:25:12;;;;;;;5.63;3.63;;;;;;;;;;10282648;28;20417;-81
2022/10/06 04:30:13;;;;;;;9.63;4.60;;;;;;;;;;10279449;28;20023;-74
2022/10/06 04:35:13;;;;;;;15.30;4.25;;;;;;;;;;10271285;28;20141;-79
2022/10/06 04:40:13;;;;;;;8.77;3.93;;;;;;;;;;10281250;28;20030;-74
2022/10/06 04:45:14;;;;;;;12.07;4.32;;;;;;;;;;10279936;28;20105;-76
2022/10/06 04:50:14;;;;;;;13.10;4.10;;;;;;;;;;10260728;28;20041;-77
2022/10/06 04:55:16;;;;;;;9.95;5.47;;;;;;;;;;10280551;28;20019;-79
2022/10/06 05:00:22;;;;;;;4.63;3.50;;;;;;;;;;10279609;28;20485;-81
2022/10/06 05:05:23;;;;;;;6.75;3.63;;;;;;;;;;10278420;28;20031;-81
2022/10/06 05:10:23;;;;;;;4.65;3.33;;;;;;;;;;10276186;28;20023;-79
2022/10/06 05:15:23;;;;;;;7.60;4.00;;;;;;;;;;10274198;28;20027;-74
2022/10/06 05:20:23;;;;;;;10.10;4.38;;;;;;;;;;10276491;28;20035;-78
2022/10/06 05:25:24;;;;;;;6.63;4.45;;;;;;;;;;10279800;28;20445;-77
2022/10/06 05:30:24;;;;;;;7.70;4.32;;;;;;;;;;10277249;28;20026;-74
2022/10/06 05:35:25;;;;;;;9.98;4.13;;;;;;;;;;10277498;28;20512;-76
2022/10/06 05:40:25;;;;;;;10.88;5.20;;;;;;;;;;10279526;28;20027;-73
2022/10/06 05:45:25;;;;;;;16.27;6.47;;;;;;;;;;10279170;28;20027;-78
2022/10/06 05:50:25;;;;;;;18.27;5.72;;;;;;;;;;10278701;28;20027;-73
2022/10/06 05:55:26;;;;;;;10.40;5.95;;;;;;;;;;10277974;28;20023;-78
2022/10/06 06:00:26;;;;;;;9.90;5.53;;;;;;;;;;10286671;28;20693;-81
2022/10/06 06:05:26;;;;;;;9.10;4.88;;;;;;;;;;10287129;28;20041;-77
2022/10/06 06:10:26;;;;;;;9.82;4.80;;;;;;;;;;10287232;28;20034;-79
2022/10/06 06:20:53;;;;;;;7.90;4.57;;;;;;;;;;10287213;28;20031;-77
2022/10/06 06:25:57;;;;;;;4.23;2.83;;;;;;;;;;10284864;28;20041;-78
2022/10/06 06:31:00;;;;;;;5.28;3.17;;;;;;;;;;10285758;28;20031;-74
2022/10/06 06:36:02;;;;;;;11.38;2.58;;;;;;;;;;10269616;28;20100;-77
2022/10/06 06:41:03;;;;;;;6.05;2.03;;;;;;;;;;10284454;28;20489;-78
2022/10/06 06:46:03;;;;;;;3.13;1.98;;;;;;;;;;10286677;28;20050;-73
2022/10/06 06:51:03;;;;;;;2.72;1.90;;;;;;;;;;10288056;28;20057;-76
2022/10/06 06:56:04;;;;;;;4.38;1.80;;;;;;;;;;10284310;28;20401;-79
2022/10/06 07:01:05;;;;;;;12.18;2.83;;;;;;;;;;10277435;28;20089;-78
2022/10/06 07:06:08;;;;;;;4.93;2.65;;;;;;;;;;10283746;28;20035;-77
2022/10/06 07:11:16;;;;;;;4.47;2.50;;;;;;;;;;10280570;28;20027;-74
2022/10/06 07:26:54;;;;;;;8.30;4.78;;;;;;;;;;10284459;28;20039;-78
2022/10/06 07:31:54;;;;;;;13.18;5.00;;;;;;;;;;10282197;28;20042;-76
2022/10/06 07:36:57;;;;;;;13.75;4.57;;;;;;;;;;10284690;28;20413;-79
2022/10/06 07:41:58;;;;;;;11.38;4.10;;;;;;;;;;10282885;28;20425;-76
2022/10/06 07:46:58;;;;;;;13.20;4.60;;;;;;;;;;10270791;28;20030;-80
2022/10/06 07:51:58;;;;;;;9.25;4.68;;;;;;;;;;10281020;28;20019;-77
2022/10/06 07:56:59;;;;;;;11.40;4.78;;;;;;;;;;10274815;28;20113;-73
2022/10/06 08:01:59;;;;;;;11.02;4.38;;;;;;;;;;10262905;28;20620;-79
2022/10/06 08:06:59;;;;;;;10.10;3.83;;;;;;;;;;10287881;28;20058;-74
2022/10/06 08:12:31;;;;;;;14.50;5.82;;;;;;;;;;10263984;28;20023;-74
2022/10/06 08:17:20;;;;;;;9.38;3.75;;;;;;;;;;10265589;28;20039;-74
2022/10/06 08:22:21;;;;;;;13.15;4.53;;;;;;;;;;10271768;28;20035;-77
2022/10/06 08:27:22;;;;;;;16.30;4.35;;;;;;;;;;10269478;28;20122;-79
2022/10/06 08:32:22;;;;;;;12.20;4.13;;;;;;;;;;10287585;28;20138;-76
2022/10/06 08:37:23;;;;;;;26.10;4.53;;;;;;;;;;10273448;28;20039;-78
2022/10/06 08:42:38;;;;;;;20.52;6.07;;;;;;;;;;10271471;28;20034;-75
2022/10/06 08:47:44;;;;;;;16.23;4.72;;;;;;;;;;10282708;28;20030;-78
2022/10/06 08:52:57;;;;;;;18.80;5.45;;;;;;;;;;10270233;28;20059;-74
2022/10/06 08:58:16;;;;;;;10.82;5.15;;;;;;;;;;10274853;28;20026;-75
2022/10/06 09:03:22;;;;;;;7.40;4.47;;;;;;;;;;10272239;28;20054;-78
2022/10/06 09:08:41;;;;;;;12.32;4.97;;;;;;;;;;10273832;28;20034;-77
2022/10/06 09:13:53;;;;;;;14.38;4.95;;;;;;;;;;10276489;28;20787;-74
2022/10/06 09:18:59;;;;;;;12.75;4.40;;;;;;;;;;10273133;28;20019;-74
2022/10/06 09:24:19;;;;;;;10.45;4.45;;;;;;;;;;10272030;28;20027;-77
2022/10/06 09:29:20;;;;;;;13.20;4.70;;;;;;;;;;10264229;28;20492;-80
2022/10/06 09:34:23;;;;;;;12.87;4.53;;;;;;;;;;10271039;28;20057;-73
2022/10/06 09:39:25;;;;;;;10.10;3.55;;;;;;;;;;10271069;28;20038;-80
2022/10/06 09:44:26;;;;;;;12.23;6.38;;;;;;;;;;10267275;28;20413;-75
2022/10/06 09:49:30;;;;;;;9.93;3.95;;;;;;;;;;10271568;28;20053;-78
2022/10/06 09:54:30;;;;;;;7.88;2.90;;;;;;;;;;10256169;28;20026;-74
2022/10/06 09:59:33;;;;;;;8.57;3.33;;;;;;;;;;10279113;28;20027;-74
2022/10/06 10:04:37;;;;;;;9.88;3.20;;;;;;;;;;10272650;28;20027;-75
2022/10/06 10:09:40;;;;;;;7.45;3.65;;;;;;;;;;10275654;28;20027;-74
2022/10/06 10:14:40;;;;;;;10.80;3.05;;;;;;;;;;10273829;28;20053;-77
2022/10/06 10:19:42;;;;;;;6.15;2.20;;;;;;;;;;10275730;28;20023;-74
2022/10/06 10:24:46;;;;;;;6.53;2.42;;;;;;;;;;10277233;28;20073;-77
2022/10/06 10:30:10;;;;;;;4.20;2.55;;;;;;;;;;10275470;28;20023;-74
2022/10/06 10:35:29;;;;;;;7.30;2.08;;;;;;;;;;10268396;28;20547;-74
2022/10/06 10:40:32;;;;;;;7.63;2.97;;;;;;;;;;10278103;28;20075;-74
2022/10/06 10:45:34;;;;;;;6.88;1.88;;;;;;;;;;10282960;28;20039;-74
2022/10/06 10:50:55;;;;;;;5.50;2.13;;;;;;;;;;10284966;28;20470;-79
2022/10/06 10:55:55;;;;;;;9.25;2.63;;;;;;;;;;10287042;28;20125;-75
2022/10/06 11:00:58;;;;;;;5.07;2.53;;;;;;;;;;10285020;28;20494;-79
2022/10/06 11:06:13;;;;;;;5.97;2.38;;;;;;;;;;10285541;28;20508;-74
2022/10/06 11:11:34;;;;;;;6.55;2.42;;;;;;;;;;10284642;28;20114;-75
2022/10/06 11:16:45;;;;;;;9.82;2.80;;;;;;;;;;10257451;28;20452;-74
2022/10/06 11:21:54;;;;;;;6.97;2.30;;;;;;;;;;10285421;28;20023;-81
2022/10/06 11:26:58;;;;;;;4.78;2.40;;;;;;;;;;10282725;28;20043;-74
2022/10/06 11:32:01;;;;;;;3.03;2.15;;;;;;;;;;10285876;28;20166;-74
2022/10/06 11:37:08;;;;;;;8.40;2.22;;;;;;;;;;10282947;28;20039;-78
2022/10/06 11:42:24;;;;;;;7.82;2.15;;;;;;;;;;10280821;28;20026;-75
2022/10/06 11:47:28;;;;;;;9.10;3.25;;;;;;;;;;10283117;28;20050;-79
2022/10/06 11:52:29;;;;;;;10.63;2.65;;;;;;;;;;10284779;28;20050;-80
2022/10/06 11:57:30;;;;;;;8.70;2.17;;;;;;;;;;10283014;28;20488;-81
2022/10/06 12:02:33;;;;;;;6.53;1.85;;;;;;;;;;10283074;28;20031;-79
2022/10/06 12:07:52;;;;;;;4.63;1.42;;;;;;;;;;10284539;28;20141;-78
2022/10/06 12:12:52;;;;;;;5.03;1.85;;;;;;;;;;10283313;28;20022;-75
2022/10/06 12:17:56;;;;;;;6.90;1.92;;;;;;;;;;10282128;28;20033;-73
2022/10/06 12:23:15;;;;;;;7.90;1.55;;;;;;;;;;10282881;28;20094;-80
2022/10/06 12:28:23;;;;;;;8.25;2.05;;;;;;;;;;10279901;28;20030;-76
2022/10/06 12:33:34;;;;;;;8.82;1.70;;;;;;;;;;10280993;28;20058;-74
2022/10/06 12:38:40;;;;;;;5.95;2.28;;;;;;;;;;10296414;28;20027;-79
2022/10/06 12:43:52;;;;;;;4.28;1.20;;;;;;;;;;10280811;28;20408;-78
2022/10/06 12:49:03;;;;;;;7.88;1.42;;;;;;;;;;10276841;28;20057;-72
2022/10/06 12:54:09;;;;;;;6.07;0.95;;;;;;;;;;10280141;28;20019;-73
2022/10/06 12:59:18;;;;;;;1.10;0.93;;;;;;;;;;10278660;28;20042;-75
2022/10/06 13:04:42;;;;;;;4.90;1.10;;;;;;;;;;10280132;28;20023;-79
2022/10/06 13:09:42;;;;;;;4.45;1.30;;;;;;;;;;10283638;28;20030;-78
2022/10/06 13:14:43;;;;;;;4.15;1.33;;;;;;;;;;10281977;28;20023;-80
2022/10/06 13:19:43;;;;;;;2.78;1.27;;;;;;;;;;10280185;28;20023;-81
2022/10/06 13:24:44;;;;;;;3.25;1.50;;;;;;;;;;10278132;28;20023;-79
2022/10/06 13:29:45;;;;;;;3.03;1.48;;;;;;;;;;10280109;28;20102;-79
2022/10/06 13:34:45;;;;;;;2.35;1.17;;;;;;;;;;10279995;28;20042;-77
2022/10/06 13:39:45;;;;;;;5.00;1.23;;;;;;;;;;10278760;28;20030;-76
2022/10/06 13:44:53;;;;;;;0.73;0.60;;;;;;;;;;10279630;28;20073;-78
2022/10/06 13:50:11;;;;;;;1.95;0.95;;;;;;;;;;10278937;28;20106;-74
2022/10/06 13:55:16;;;;;;;1.87;0.87;;;;;;;;;;10277034;28;20019;-74
2022/10/06 14:00:16;;;;;;;1.90;0.90;;;;;;;;;;10277661;28;20019;-77
2022/10/06 14:05:20;;;;;;;3.50;1.80;;;;;;;;;;10278048;28;20061;-75
2022/10/06 14:10:26;;;;;;;4.43;1.05;;;;;;;;;;10277050;28;20057;-75
2022/10/06 14:15:29;;;;;;;1.77;1.10;;;;;;;;;;10278640;28;20444;-77
2022/10/06 14:20:36;;;;;;;4.18;1.33;;;;;;;;;;10285735;28;20050;-80
2022/10/06 14:25:36;;;;;;;1.92;1.15;;;;;;;;;;10288510;28;20019;-81
2022/10/06 14:30:36;;;;;;;7.32;1.58;;;;;;;;;;10286413;28;20023;-80
2022/10/06 14:35:36;;;;;;;7.05;1.50;;;;;;;;;;10287560;28;20402;-78
2022/10/06 14:40:40;;;;;;;3.55;1.63;;;;;;;;;;10285721;28;20038;-79
2022/10/06 14:45:41;;;;;;;2.53;1.10;;;;;;;;;;10283238;28;20022;-78
2022/10/06 14:50:42;;;;;;;7.03;1.55;;;;;;;;;;10286448;28;20023;-75
2022/10/06 14:55:44;;;;;;;3.88;1.50;;;;;;;;;;10269648;28;20170;-77
2022/10/06 15:00:44;;;;;;;3.30;1.58;;;;;;;;;;10285890;28;20029;-73
2022/10/06 15:11:03;;;;;;;5.28;2.00;;;;;;;;;;10285030;28;20497;-75
2022/10/06 15:16:04;;;;;;;2.50;1.52;;;;;;;;;;10284338;28;20014;-78
2022/10/06 15:21:04;;;;;;;4.97;2.30;;;;;;;;;;10284653;28;20050;-79
2022/10/06 15:31:24;;;;;;;14.93;3.55;;;;;;;;;;10283030;28;20034;-77
2022/10/06 15:36:24;;;;;;;9.73;2.92;;;;;;;;;;10284593;28;20027;-78
2022/10/06 15:41:25;;;;;;;7.00;3.22;;;;;;;;;;10284034;28;20425;-79
2022/10/06 15:46:25;;;;;;;13.75;2.53;;;;;;;;;;10282605;28;21858;-76
2022/10/06 15:51:27;;;;;;;23.83;4.57;;;;;;;;;;10282798;28;20031;-75
2022/10/06 15:56:28;;;;;;;13.20;4.30;;;;;;;;;;10282675;28;20030;-75
2022/10/06 16:01:45;;;;;;;15.73;4.03;;;;;;;;;;10280855;28;20053;-83
2022/10/06 16:11:46;;;;;;;14.98;3.70;;;;;;;;;;10284715;28;20027;-75
2022/10/06 16:16:47;;;;;;;19.10;4.63;;;;;;;;;;10281561;28;20027;-75
2022/10/06 16:26:58;;;;;;;11.95;4.38;;;;;;;;;;10351772;23;20532;-78
2022/10/06 16:31:59;;;;;;;21.65;5.40;;;;;;;;;;10305297;28;20042;-78
2022/10/06 16:36:59;;;;;;;19.47;5.50;;;;;;;;;;10304405;28;20544;-75
2022/10/06 16:41:59;;;;;;;14.15;4.65;;;;;;;;;;10322026;28;20033;-78
2022/10/06 16:46:59;;;;;;;11.30;3.42;;;;;;;;;;10345778;28;20030;-77
2022/10/06 16:52:00;;;;;;;12.95;4.10;;;;;;;;;;10344808;28;20018;-74
2022/10/06 16:57:05;;;;;;;11.52;4.50;;;;;;;;;;10345035;28;20018;-74
2022/10/06 17:02:05;;;;;;;19.58;5.63;;;;;;;;;;10337177;28;20033;-77
2022/10/06 17:07:06;;;;;;;20.60;5.18;;;;;;;;;;10343003;28;20030;-75
2022/10/06 17:12:06;;;;;;;19.60;6.00;;;;;;;;;;10341382;28;20025;-78
2022/10/06 17:17:06;;;;;;;19.40;6.82;;;;;;;;;;10342056;28;20335;-74
2022/10/06 17:22:06;;;;;;;20.77;8.40;;;;;;;;;;10339069;28;20473;-78
2022/10/06 17:27:07;;;;;;;25.95;7.95;;;;;;;;;;10340890;28;20442;-77
2022/10/06 17:32:08;;;;;;;29.30;8.65;;;;;;;;;;10351760;28;20118;-74
2022/10/06 17:37:08;;;;;;;20.77;9.40;;;;;;;;;;10342633;28;20026;-73
2022/10/06 17:42:12;;;;;;;21.88;7.75;;;;;;;;;;10352195;28;20421;-73
2022/10/06 17:47:12;;;;;;;13.48;5.63;;;;;;;;;;10337607;28;20030;-72
2022/10/06 17:52:13;;;;;;;6.60;3.47;;;;;;;;;;10351907;28;20032;-74
2022/10/06 17:57:13;;;;;;;11.35;4.45;;;;;;;;;;10354526;28;20037;-72
2022/10/06 18:02:13;;;;;;;18.65;5.45;;;;;;;;;;10349437;28;20026;-74
2022/10/06 18:07:13;;;;;;;21.50;5.00;;;;;;;;;;10346484;28;20025;-73
2022/10/06 18:12:13;;;;;;;16.33;5.25;;;;;;;;;;10347143;28;20049;-74
2022/10/06 18:17:14;;;;;;;12.38;4.97;;;;;;;;;;10346397;28;20030;-73
2022/10/06 18:22:16;;;;;;;12.73;5.00;;;;;;;;;;10350534;28;20555;-75
2022/10/06 18:27:16;;;;;;;11.50;5.70;;;;;;;;;;10347257;28;20057;-76
2022/10/06 18:32:16;;;;;;;12.93;4.28;;;;;;;;;;10346446;28;20110;-74
2022/10/06 18:37:17;;;;;;;10.75;3.97;;;;;;;;;;10348860;28;20056;-74
2022/10/06 18:42:18;;;;;;;10.37;4.20;;;;;;;;;;10352610;28;20033;-74
2022/10/06 18:52:41;;;;;;;9.70;3.90;;;;;;;;;;10345559;28;20856;-73
2022/10/06 18:57:42;;;;;;;16.05;3.80;;;;;;;;;;10345416;28;20045;-73
2022/10/06 19:02:42;;;;;;;12.25;3.67;;;;;;;;;;10352677;28;20101;-73
2022/10/06 19:07:42;;;;;;;9.70;3.60;;;;;;;;;;10358129;28;20161;-72
2022/10/06 19:12:42;;;;;;;7.45;3.55;;;;;;;;;;10359541;28;20018;-73
2022/10/06 19:17:44;;;;;;;15.07;4.07;;;;;;;;;;10363339;28;20030;-74
2022/10/06 19:22:46;;;;;;;23.10;4.90;;;;;;;;;;10355980;28;20062;-73
2022/10/06 19:27:47;;;;;;;9.63;4.57;;;;;;;;;;10355617;28;20033;-73
2022/10/06 19:32:47;;;;;;;12.48;4.15;;;;;;;;;;10356441;28;20444;-76
2022/10/06 19:37:49;;;;;;;10.80;3.40;;;;;;;;;;10355036;28;20060;-73
2022/10/06 19:42:50;;;;;;;8.38;4.25;;;;;;;;;;10357066;28;20273;-72
2022/10/06 19:47:50;;;;;;;7.32;3.78;;;;;;;;;;10357614;28;20018;-74
2022/10/06 19:52:51;;;;;;;6.32;3.45;;;;;;;;;;10350897;28;20468;-73
2022/10/06 19:57:51;;;;;;;14.23;4.65;;;;;;;;;;10354664;28;20116;-74
2022/10/06 20:02:51;;;;;;;11.07;3.65;;;;;;;;;;10359257;28;20428;-74
2022/10/06 20:07:52;;;;;;;12.77;4.47;;;;;;;;;;10352719;28;20037;-73
2022/10/06 20:12:52;;;;;;;6.75;3.47;;;;;;;;;;10355603;28;20272;-73
2022/10/06 20:17:52;;;;;;;7.22;3.35;;;;;;;;;;10353817;28;20104;-75
2022/10/06 20:22:52;;;;;;;11.38;4.57;;;;;;;;;;10354480;28;20612;-74
2022/10/06 20:27:53;;;;;;;12.07;3.53;;;;;;;;;;10357798;28;20480;-72
2022/10/06 20:32:53;;;;;;;7.22;3.08;;;;;;;;;;10357589;28;20165;-73
2022/10/06 20:37:53;;;;;;;9.32;2.83;;;;;;;;;;10356661;28;20587;-76
2022/10/06 20:42:54;;;;;;;9.25;3.75;;;;;;;;;;10357969;28;20085;-74
2022/10/06 20:47:57;;;;;;;6.63;3.30;;;;;;;;;;10355086;28;20168;-73
2022/10/06 20:52:57;;;;;;;8.77;3.90;;;;;;;;;;10353020;28;20026;-73
2022/10/06 20:57:58;;;;;;;8.43;3.47;;;;;;;;;;10351942;28;20034;-73
2022/10/06 21:02:58;;;;;;;8.60;4.25;;;;;;;;;;10355071;28;20030;-73
2022/10/06 21:07:58;;;;;;;5.68;3.42;;;;;;;;;;10352550;28;20030;-72
2022/10/06 21:13:00;;;;;;;8.63;4.85;;;;;;;;;;10352364;28;20032;-75
2022/10/06 21:18:01;;;;;;;4.75;3.40;;;;;;;;;;10357524;28;20689;-73
2022/10/06 21:23:02;;;;;;;5.53;3.25;;;;;;;;;;10350283;28;20053;-73
2022/10/06 21:28:03;;;;;;;5.88;3.30;;;;;;;;;;10350358;28;20038;-74
2022/10/06 21:33:03;;;;;;;6.80;3.58;;;;;;;;;;10350301;28;20032;-73
2022/10/06 21:38:05;;;;;;;8.88;3.00;;;;;;;;;;10350895;28;20029;-78
2022/10/06 21:43:06;;;;;;;3.33;2.72;;;;;;;;;;10348186;28;20213;-74
2022/10/06 21:48:06;;;;;;;6.95;3.50;;;;;;;;;;10355238;28;20030;-75
2022/10/06 21:53:06;;;;;;;8.90;4.13;;;;;;;;;;10355146;28;20026;-72
2022/10/06 21:58:06;;;;;;;8.55;3.00;;;;;;;;;;10352598;28;20033;-76
2022/10/06 22:03:07;;;;;;;13.98;3.10;;;;;;;;;;10353102;28;20099;-74
2022/10/06 22:08:07;;;;;;;5.95;3.17;;;;;;;;;;10352955;28;20064;-73
2022/10/06 22:13:07;;;;;;;7.60;2.88;;;;;;;;;;10347719;28;20026;-77
2022/10/06 22:18:07;;;;;;;6.35;3.45;;;;;;;;;;10355446;28;20030;-74
2022/10/06 22:23:08;;;;;;;4.72;2.85;;;;;;;;;;10350178;28;20488;-73
2022/10/06 22:28:08;;;;;;;4.97;3.20;;;;;;;;;;10352199;28;20408;-73
2022/10/06 22:33:08;;;;;;;10.05;3.90;;;;;;;;;;10354195;28;20471;-74
2022/10/06 22:38:08;;;;;;;7.78;3.97;;;;;;;;;;10353158;28;20075;-75
2022/10/06 22:43:08;;;;;;;7.38;3.92;;;;;;;;;;10352976;28;20068;-75
2022/10/06 22:48:09;;;;;;;10.98;3.97;;;;;;;;;;10353496;28;20085;-76
2022/10/06 22:53:09;;;;;;;8.38;3.75;;;;;;;;;;10347975;28;20084;-77
2022/10/06 22:58:10;;;;;;;9.17;3.73;;;;;;;;;;10339563;28;20125;-76
2022/10/06 23:03:11;;;;;;;7.35;3.85;;;;;;;;;;10348575;28;20030;-72
2022/10/06 23:08:11;;;;;;;9.75;3.55;;;;;;;;;;10347255;28;20750;-74
2022/10/06 23:13:11;;;;;;;7.88;3.97;;;;;;;;;;10350488;28;20056;-76
2022/10/06 23:18:12;;;;;;;10.27;4.40;;;;;;;;;;10347086;28;20022;-73
2022/10/06 23:23:12;;;;;;;6.33;3.50;;;;;;;;;;10339049;28;20050;-76
2022/10/06 23:28:12;;;;;;;13.45;4.22;;;;;;;;;;10347600;28;20286;-75
2022/10/06 23:33:12;;;;;;;6.17;3.90;;;;;;;;;;10347747;28;20019;-74
2022/10/06 23:38:13;;;;;;;10.18;3.72;;;;;;;;;;10346781;28;20816;-74
2022/10/06 23:43:13;;;;;;;7.25;3.38;;;;;;;;;;10345697;28;20028;-74
2022/10/06 23:48:13;;;;;;;11.70;4.80;;;;;;;;;;10346710;28;20026;-77
2022/10/06 23:53:14;;;;;;;6.88;4.13;;;;;;;;;;10343916;28;20025;-74
2022/10/06 23:58:14;;;;;;;11.15;4.30;;;;;;;;;;10345996;28;20465;-74
